Montezuma, Ohio
Current Conditions -  °F | °C
As of 2:54 AM on Friday 31 Oct 2014 (Local Time) from KAXV Reporting Station
Overcast Overcast  
Wind Chill: 39°   Ceiling: 4500
Heat Index: 43°   Visibility: 10mi
Dew Point: 37°   Wind: 6mph
Humidity: 81%   Direction: 180°S
Pressure: 30.01"   Gusts: NA
Location:  40.49°N, 84.55°W
Report Text: KAXV 310654Z AUTO 18005KT 10SM OVC045 06/03 A3001 RMK AO2
Loading
Personal Weather Stations






























Interactive Weather Map
Tropical Storm Tracking
New forecast layout! Learn more

10-Day Weather Forecast

Advertisements
Track Severe Weather on mobile